sensor_id;sensor_type;location;lat;lon;timestamp;temperature;humidity
10572;DHT22;5334;48.928;12.704;2023-04-25T00:02:03;7.90;99.90
10572;DHT22;5334;48.928;12.704;2023-04-25T00:04:29;7.90;99.90
10572;DHT22;5334;48.928;12.704;2023-04-25T00:06:55;7.90;99.90
10572;DHT22;5334;48.928;12.704;2023-04-25T00:09:22;7.80;99.90
10572;DHT22;5334;48.928;12.704;2023-04-25T00:11:47;7.70;99.90
10572;DHT22;5334;48.928;12.704;2023-04-25T00:14:14;7.80;99.90
10572;DHT22;5334;48.928;12.704;2023-04-25T00:16:39;7.70;99.90
10572;DHT22;5334;48.928;12.704;2023-04-25T00:19:06;7.70;99.90
10572;DHT22;5334;48.928;12.704;2023-04-25T00:21:33;7.70;99.90
10572;DHT22;5334;48.928;12.704;2023-04-25T00:23:59;7.70;99.90
10572;DHT22;5334;48.928;12.704;2023-04-25T00:26:25;7.70;99.90
10572;DHT22;5334;48.928;12.704;2023-04-25T00:28:51;7.70;99.90
10572;DHT22;5334;48.928;12.704;2023-04-25T00:31:17;7.70;99.90
10572;DHT22;5334;48.928;12.704;2023-04-25T00:33:42;7.70;99.90
10572;DHT22;5334;48.928;12.704;2023-04-25T00:36:08;7.70;99.90
10572;DHT22;5334;48.928;12.704;2023-04-25T00:38:35;7.70;99.90
10572;DHT22;5334;48.928;12.704;2023-04-25T00:41:01;7.70;99.90
10572;DHT22;5334;48.928;12.704;2023-04-25T00:43:27;7.70;99.90
10572;DHT22;5334;48.928;12.704;2023-04-25T00:45:53;7.60;99.90
10572;DHT22;5334;48.928;12.704;2023-04-25T00:48:22;7.60;99.90
10572;DHT22;5334;48.928;12.704;2023-04-25T00:50:53;7.50;99.90
10572;DHT22;5334;48.928;12.704;2023-04-25T00:53:23;7.50;99.90
10572;DHT22;5334;48.928;12.704;2023-04-25T00:55:50;7.50;99.90
10572;DHT22;5334;48.928;12.704;2023-04-25T00:58:19;7.50;99.90
10572;DHT22;5334;48.928;12.704;2023-04-25T01:00:47;7.50;99.90
10572;DHT22;5334;48.928;12.704;2023-04-25T01:03:16;7.50;99.90
10572;DHT22;5334;48.928;12.704;2023-04-25T01:05:43;7.50;99.90
10572;DHT22;5334;48.928;12.704;2023-04-25T01:08:09;7.50;99.90
10572;DHT22;5334;48.928;12.704;2023-04-25T01:10:35;7.50;99.90
10572;DHT22;5334;48.928;12.704;2023-04-25T01:13:01;7.50;99.90
10572;DHT22;5334;48.928;12.704;2023-04-25T01:15:26;7.40;99.90
10572;DHT22;5334;48.928;12.704;2023-04-25T01:17:52;7.50;99.90
10572;DHT22;5334;48.928;12.704;2023-04-25T01:20:20;7.50;99.90
10572;DHT22;5334;48.928;12.704;2023-04-25T01:22:47;7.50;99.90
10572;DHT22;5334;48.928;12.704;2023-04-25T01:25:13;7.50;99.90
10572;DHT22;5334;48.928;12.704;2023-04-25T01:27:40;7.50;99.90
10572;DHT22;5334;48.928;12.704;2023-04-25T01:30:06;7.50;99.90
10572;DHT22;5334;48.928;12.704;2023-04-25T01:32:33;7.50;99.90
10572;DHT22;5334;48.928;12.704;2023-04-25T01:35:08;7.50;99.90
10572;DHT22;5334;48.928;12.704;2023-04-25T01:37:42;7.50;99.90
10572;DHT22;5334;48.928;12.704;2023-04-25T01:40:09;7.50;99.90
10572;DHT22;5334;48.928;12.704;2023-04-25T01:42:37;7.40;99.90
10572;DHT22;5334;48.928;12.704;2023-04-25T01:45:03;7.40;99.90
10572;DHT22;5334;48.928;12.704;2023-04-25T01:47:29;7.40;99.90
10572;DHT22;5334;48.928;12.704;2023-04-25T01:49:55;7.50;99.90
10572;DHT22;5334;48.928;12.704;2023-04-25T01:52:21;7.40;99.90
10572;DHT22;5334;48.928;12.704;2023-04-25T01:54:47;7.50;99.90
10572;DHT22;5334;48.928;12.704;2023-04-25T01:57:13;7.50;99.90
10572;DHT22;5334;48.928;12.704;2023-04-25T01:59:39;7.60;99.90
10572;DHT22;5334;48.928;12.704;2023-04-25T02:02:06;7.60;99.90
10572;DHT22;5334;48.928;12.704;2023-04-25T02:04:32;7.60;99.90
10572;DHT22;5334;48.928;12.704;2023-04-25T02:06:57;7.70;99.90
10572;DHT22;5334;48.928;12.704;2023-04-25T02:09:23;7.70;99.90
10572;DHT22;5334;48.928;12.704;2023-04-25T02:11:49;7.70;99.90
10572;DHT22;5334;48.928;12.704;2023-04-25T02:14:15;7.70;99.90
10572;DHT22;5334;48.928;12.704;2023-04-25T02:16:40;7.70;99.90
10572;DHT22;5334;48.928;12.704;2023-04-25T02:19:06;7.70;99.90
10572;DHT22;5334;48.928;12.704;2023-04-25T02:21:32;7.60;99.90
10572;DHT22;5334;48.928;12.704;2023-04-25T02:23:58;7.60;99.90
10572;DHT22;5334;48.928;12.704;2023-04-25T02:26:23;7.60;99.90
10572;DHT22;5334;48.928;12.704;2023-04-25T02:28:50;7.60;99.90
10572;DHT22;5334;48.928;12.704;2023-04-25T02:31:16;7.70;99.90
10572;DHT22;5334;48.928;12.704;2023-04-25T02:33:43;7.70;99.90
10572;DHT22;5334;48.928;12.704;2023-04-25T02:36:08;7.70;99.90
10572;DHT22;5334;48.928;12.704;2023-04-25T02:38:34;7.70;99.90
10572;DHT22;5334;48.928;12.704;2023-04-25T02:41:00;7.80;99.90
10572;DHT22;5334;48.928;12.704;2023-04-25T02:43:25;7.80;99.90
10572;DHT22;5334;48.928;12.704;2023-04-25T02:45:51;7.80;99.90
10572;DHT22;5334;48.928;12.704;2023-04-25T02:48:17;7.80;99.90
10572;DHT22;5334;48.928;12.704;2023-04-25T02:50:43;7.80;99.90
10572;DHT22;5334;48.928;12.704;2023-04-25T02:53:08;7.80;99.90
10572;DHT22;5334;48.928;12.704;2023-04-25T02:55:34;7.80;99.90
10572;DHT22;5334;48.928;12.704;2023-04-25T02:58:00;7.80;99.90
10572;DHT22;5334;48.928;12.704;2023-04-25T03:00:25;7.80;99.90
10572;DHT22;5334;48.928;12.704;2023-04-25T03:02:51;7.70;99.90
10572;DHT22;5334;48.928;12.704;2023-04-25T03:05:17;7.80;99.90
10572;DHT22;5334;48.928;12.704;2023-04-25T03:07:43;7.80;99.90
10572;DHT22;5334;48.928;12.704;2023-04-25T03:10:10;7.80;99.90
10572;DHT22;5334;48.928;12.704;2023-04-25T03:12:36;7.70;99.90
10572;DHT22;5334;48.928;12.704;2023-04-25T03:15:02;7.70;99.90
10572;DHT22;5334;48.928;12.704;2023-04-25T03:17:28;7.70;99.90
10572;DHT22;5334;48.928;12.704;2023-04-25T03:19:54;7.70;99.90
10572;DHT22;5334;48.928;12.704;2023-04-25T03:22:19;7.70;99.90
10572;DHT22;5334;48.928;12.704;2023-04-25T03:24:45;7.70;99.90
10572;DHT22;5334;48.928;12.704;2023-04-25T03:27:11;7.70;99.90
10572;DHT22;5334;48.928;12.704;2023-04-25T03:29:36;7.60;99.90
10572;DHT22;5334;48.928;12.704;2023-04-25T03:32:02;7.60;99.90
10572;DHT22;5334;48.928;12.704;2023-04-25T03:34:27;7.60;99.90
10572;DHT22;5334;48.928;12.704;2023-04-25T03:36:53;7.60;99.90
10572;DHT22;5334;48.928;12.704;2023-04-25T03:39:19;7.70;99.90
10572;DHT22;5334;48.928;12.704;2023-04-25T03:41:45;7.60;99.90
10572;DHT22;5334;48.928;12.704;2023-04-25T03:44:11;7.60;99.90
10572;DHT22;5334;48.928;12.704;2023-04-25T03:46:37;7.60;99.90
10572;DHT22;5334;48.928;12.704;2023-04-25T03:49:03;7.60;99.90
10572;DHT22;5334;48.928;12.704;2023-04-25T03:51:28;7.60;99.90
10572;DHT22;5334;48.928;12.704;2023-04-25T03:53:54;7.50;99.90
10572;DHT22;5334;48.928;12.704;2023-04-25T03:56:20;7.50;99.90
10572;DHT22;5334;48.928;12.704;2023-04-25T03:58:46;7.50;99.90
10572;DHT22;5334;48.928;12.704;2023-04-25T04:01:12;7.50;99.90
10572;DHT22;5334;48.928;12.704;2023-04-25T04:03:37;7.50;99.90
10572;DHT22;5334;48.928;12.704;2023-04-25T04:06:04;7.60;99.90
10572;DHT22;5334;48.928;12.704;2023-04-25T04:08:31;7.60;99.90
10572;DHT22;5334;48.928;12.704;2023-04-25T04:10:58;7.60;99.90
10572;DHT22;5334;48.928;12.704;2023-04-25T04:13:25;7.60;99.90
10572;DHT22;5334;48.928;12.704;2023-04-25T04:15:50;7.60;99.90
10572;DHT22;5334;48.928;12.704;2023-04-25T04:18:16;7.60;99.90
10572;DHT22;5334;48.928;12.704;2023-04-25T04:20:42;7.60;99.90
10572;DHT22;5334;48.928;12.704;2023-04-25T04:23:07;7.60;99.90
10572;DHT22;5334;48.928;12.704;2023-04-25T04:25:33;7.60;99.90
10572;DHT22;5334;48.928;12.704;2023-04-25T04:27:59;7.70;99.90
10572;DHT22;5334;48.928;12.704;2023-04-25T04:30:26;7.70;99.90
10572;DHT22;5334;48.928;12.704;2023-04-25T04:32:55;7.70;99.90
10572;DHT22;5334;48.928;12.704;2023-04-25T04:35:22;7.70;99.90
10572;DHT22;5334;48.928;12.704;2023-04-25T04:37:48;7.70;99.90
10572;DHT22;5334;48.928;12.704;2023-04-25T04:40:14;7.80;99.90
10572;DHT22;5334;48.928;12.704;2023-04-25T04:42:43;7.80;99.90
10572;DHT22;5334;48.928;12.704;2023-04-25T04:45:11;7.80;99.90
10572;DHT22;5334;48.928;12.704;2023-04-25T04:47:37;7.80;99.90
10572;DHT22;5334;48.928;12.704;2023-04-25T04:50:08;7.80;99.90
10572;DHT22;5334;48.928;12.704;2023-04-25T04:52:37;7.90;99.90
10572;DHT22;5334;48.928;12.704;2023-04-25T04:55:04;7.90;99.90
10572;DHT22;5334;48.928;12.704;2023-04-25T04:57:31;7.80;99.90
10572;DHT22;5334;48.928;12.704;2023-04-25T04:59:58;7.80;99.90
10572;DHT22;5334;48.928;12.704;2023-04-25T05:02:24;7.80;99.90
10572;DHT22;5334;48.928;12.704;2023-04-25T05:04:50;7.90;99.90
10572;DHT22;5334;48.928;12.704;2023-04-25T05:07:17;7.90;99.90
10572;DHT22;5334;48.928;12.704;2023-04-25T05:09:42;8.00;99.90
10572;DHT22;5334;48.928;12.704;2023-04-25T05:12:08;8.10;99.90
10572;DHT22;5334;48.928;12.704;2023-04-25T05:14:34;8.10;99.90
10572;DHT22;5334;48.928;12.704;2023-04-25T05:17:00;8.20;99.90
10572;DHT22;5334;48.928;12.704;2023-04-25T05:19:25;8.20;99.90
10572;DHT22;5334;48.928;12.704;2023-04-25T05:21:52;8.20;99.90
10572;DHT22;5334;48.928;12.704;2023-04-25T05:24:17;8.20;99.90
10572;DHT22;5334;48.928;12.704;2023-04-25T05:26:43;8.10;99.90
10572;DHT22;5334;48.928;12.704;2023-04-25T05:29:09;8.10;99.90
10572;DHT22;5334;48.928;12.704;2023-04-25T05:31:36;8.10;99.90
10572;DHT22;5334;48.928;12.704;2023-04-25T05:34:01;8.10;99.90
10572;DHT22;5334;48.928;12.704;2023-04-25T05:36:27;8.10;99.90
10572;DHT22;5334;48.928;12.704;2023-04-25T05:38:53;8.10;99.90
10572;DHT22;5334;48.928;12.704;2023-04-25T05:41:19;8.20;99.90
10572;DHT22;5334;48.928;12.704;2023-04-25T05:43:45;8.20;99.90
10572;DHT22;5334;48.928;12.704;2023-04-25T05:46:12;8.20;99.90
10572;DHT22;5334;48.928;12.704;2023-04-25T05:48:39;8.10;99.90
10572;DHT22;5334;48.928;12.704;2023-04-25T05:51:04;8.00;99.90
10572;DHT22;5334;48.928;12.704;2023-04-25T05:53:30;8.00;99.90
10572;DHT22;5334;48.928;12.704;2023-04-25T05:55:56;8.10;99.90
10572;DHT22;5334;48.928;12.704;2023-04-25T05:58:22;8.20;99.90
10572;DHT22;5334;48.928;12.704;2023-04-25T06:00:47;8.40;99.90
10572;DHT22;5334;48.928;12.704;2023-04-25T06:03:13;8.50;99.90
10572;DHT22;5334;48.928;12.704;2023-04-25T06:05:41;8.50;99.90
10572;DHT22;5334;48.928;12.704;2023-04-25T06:08:08;8.50;99.90
10572;DHT22;5334;48.928;12.704;2023-04-25T06:13:00;8.60;99.90
10572;DHT22;5334;48.928;12.704;2023-04-25T06:15:25;8.60;99.90
10572;DHT22;5334;48.928;12.704;2023-04-25T06:17:51;8.70;99.90
10572;DHT22;5334;48.928;12.704;2023-04-25T06:20:17;8.70;99.90
10572;DHT22;5334;48.928;12.704;2023-04-25T06:22:42;8.70;99.90
10572;DHT22;5334;48.928;12.704;2023-04-25T06:25:08;8.80;99.90
10572;DHT22;5334;48.928;12.704;2023-04-25T06:27:34;8.90;99.90
10572;DHT22;5334;48.928;12.704;2023-04-25T06:30:00;9.00;99.90
10572;DHT22;5334;48.928;12.704;2023-04-25T06:32:25;9.00;99.90
10572;DHT22;5334;48.928;12.704;2023-04-25T06:34:53;9.10;99.90
10572;DHT22;5334;48.928;12.704;2023-04-25T06:37:18;9.20;99.90
10572;DHT22;5334;48.928;12.704;2023-04-25T06:39:44;9.20;99.90
10572;DHT22;5334;48.928;12.704;2023-04-25T06:42:10;9.20;99.90
10572;DHT22;5334;48.928;12.704;2023-04-25T06:44:36;9.40;99.90
10572;DHT22;5334;48.928;12.704;2023-04-25T06:47:01;9.40;99.90
10572;DHT22;5334;48.928;12.704;2023-04-25T06:49:27;9.50;99.90
10572;DHT22;5334;48.928;12.704;2023-04-25T06:51:53;9.50;99.90
10572;DHT22;5334;48.928;12.704;2023-04-25T06:54:18;9.50;99.90
10572;DHT22;5334;48.928;12.704;2023-04-25T06:56:44;9.50;99.90
10572;DHT22;5334;48.928;12.704;2023-04-25T06:59:10;9.50;99.90
10572;DHT22;5334;48.928;12.704;2023-04-25T07:01:35;9.60;99.90
10572;DHT22;5334;48.928;12.704;2023-04-25T07:04:01;9.70;99.90
10572;DHT22;5334;48.928;12.704;2023-04-25T07:06:27;9.80;99.90
10572;DHT22;5334;48.928;12.704;2023-04-25T07:08:53;10.00;99.90
10572;DHT22;5334;48.928;12.704;2023-04-25T07:11:19;10.10;99.90
10572;DHT22;5334;48.928;12.704;2023-04-25T07:13:45;9.90;99.90
10572;DHT22;5334;48.928;12.704;2023-04-25T07:16:10;9.70;99.90
10572;DHT22;5334;48.928;12.704;2023-04-25T07:18:36;9.90;99.90
10572;DHT22;5334;48.928;12.704;2023-04-25T07:21:02;10.60;99.90
10572;DHT22;5334;48.928;12.704;2023-04-25T07:23:27;11.10;99.90
10572;DHT22;5334;48.928;12.704;2023-04-25T07:25:53;11.50;99.90
10572;DHT22;5334;48.928;12.704;2023-04-25T07:28:19;11.80;99.90
10572;DHT22;5334;48.928;12.704;2023-04-25T07:30:44;12.20;99.90
10572;DHT22;5334;48.928;12.704;2023-04-25T07:33:10;12.30;99.90
10572;DHT22;5334;48.928;12.704;2023-04-25T07:35:36;12.40;99.90
10572;DHT22;5334;48.928;12.704;2023-04-25T07:38:02;12.40;99.90
10572;DHT22;5334;48.928;12.704;2023-04-25T07:40:28;12.40;99.90
10572;DHT22;5334;48.928;12.704;2023-04-25T07:42:54;12.40;99.90
10572;DHT22;5334;48.928;12.704;2023-04-25T07:45:20;12.40;99.90
10572;DHT22;5334;48.928;12.704;2023-04-25T07:47:45;13.00;99.90
10572;DHT22;5334;48.928;12.704;2023-04-25T07:50:11;13.20;99.90
10572;DHT22;5334;48.928;12.704;2023-04-25T07:52:37;12.50;99.90
10572;DHT22;5334;48.928;12.704;2023-04-25T07:55:03;12.00;99.90
10572;DHT22;5334;48.928;12.704;2023-04-25T07:57:29;11.60;99.90
10572;DHT22;5334;48.928;12.704;2023-04-25T07:59:55;11.40;99.90
10572;DHT22;5334;48.928;12.704;2023-04-25T08:02:20;11.10;99.90
10572;DHT22;5334;48.928;12.704;2023-04-25T08:04:46;10.90;99.90
10572;DHT22;5334;48.928;12.704;2023-04-25T08:07:11;10.80;99.90
10572;DHT22;5334;48.928;12.704;2023-04-25T08:09:37;10.80;99.90
10572;DHT22;5334;48.928;12.704;2023-04-25T08:12:03;10.90;99.90
10572;DHT22;5334;48.928;12.704;2023-04-25T08:14:30;11.00;99.90
10572;DHT22;5334;48.928;12.704;2023-04-25T08:17:01;11.10;99.90
10572;DHT22;5334;48.928;12.704;2023-04-25T08:19:29;11.20;99.90
10572;DHT22;5334;48.928;12.704;2023-04-25T08:21:54;11.60;99.90
10572;DHT22;5334;48.928;12.704;2023-04-25T08:24:21;11.70;99.90
10572;DHT22;5334;48.928;12.704;2023-04-25T08:26:47;11.90;99.90
10572;DHT22;5334;48.928;12.704;2023-04-25T08:29:13;11.90;99.90
10572;DHT22;5334;48.928;12.704;2023-04-25T08:31:38;12.60;99.90
10572;DHT22;5334;48.928;12.704;2023-04-25T08:34:04;13.00;99.90
10572;DHT22;5334;48.928;12.704;2023-04-25T08:36:30;12.80;99.90
10572;DHT22;5334;48.928;12.704;2023-04-25T08:38:57;12.60;99.90
10572;DHT22;5334;48.928;12.704;2023-04-25T08:41:23;12.30;99.90
10572;DHT22;5334;48.928;12.704;2023-04-25T08:43:49;12.40;99.90
10572;DHT22;5334;48.928;12.704;2023-04-25T08:46:18;12.40;99.90
10572;DHT22;5334;48.928;12.704;2023-04-25T08:48:45;12.20;99.90
10572;DHT22;5334;48.928;12.704;2023-04-25T08:51:21;12.80;99.90
10572;DHT22;5334;48.928;12.704;2023-04-25T08:53:51;12.60;99.90
10572;DHT22;5334;48.928;12.704;2023-04-25T08:56:17;12.20;99.90
10572;DHT22;5334;48.928;12.704;2023-04-25T08:58:44;11.90;99.90
10572;DHT22;5334;48.928;12.704;2023-04-25T09:01:11;11.50;99.90
10572;DHT22;5334;48.928;12.704;2023-04-25T09:03:37;11.20;99.90
10572;DHT22;5334;48.928;12.704;2023-04-25T09:06:03;11.30;99.90
10572;DHT22;5334;48.928;12.704;2023-04-25T09:08:29;11.90;99.90
10572;DHT22;5334;48.928;12.704;2023-04-25T09:10:55;12.60;99.90
10572;DHT22;5334;48.928;12.704;2023-04-25T09:13:26;13.10;99.90
10572;DHT22;5334;48.928;12.704;2023-04-25T09:15:56;13.60;99.90
10572;DHT22;5334;48.928;12.704;2023-04-25T09:18:27;13.80;99.90
10572;DHT22;5334;48.928;12.704;2023-04-25T09:20:54;14.00;99.90
10572;DHT22;5334;48.928;12.704;2023-04-25T09:23:21;14.30;99.90
10572;DHT22;5334;48.928;12.704;2023-04-25T09:25:52;14.60;99.90
10572;DHT22;5334;48.928;12.704;2023-04-25T09:28:25;14.60;99.90
10572;DHT22;5334;48.928;12.704;2023-04-25T09:30:57;14.90;99.90
10572;DHT22;5334;48.928;12.704;2023-04-25T09:33:28;14.40;99.90
10572;DHT22;5334;48.928;12.704;2023-04-25T09:36:10;14.10;99.90
10572;DHT22;5334;48.928;12.704;2023-04-25T09:38:46;13.60;99.90
10572;DHT22;5334;48.928;12.704;2023-04-25T09:41:12;13.30;99.90
10572;DHT22;5334;48.928;12.704;2023-04-25T09:43:38;13.10;99.90
10572;DHT22;5334;48.928;12.704;2023-04-25T09:46:09;12.60;99.90
10572;DHT22;5334;48.928;12.704;2023-04-25T09:48:35;12.30;99.90
10572;DHT22;5334;48.928;12.704;2023-04-25T09:51:04;12.00;99.90
10572;DHT22;5334;48.928;12.704;2023-04-25T09:53:32;11.90;99.90
10572;DHT22;5334;48.928;12.704;2023-04-25T09:56:00;11.60;99.90
10572;DHT22;5334;48.928;12.704;2023-04-25T09:58:28;11.50;99.90
10572;DHT22;5334;48.928;12.704;2023-04-25T10:01:02;11.50;99.90
10572;DHT22;5334;48.928;12.704;2023-04-25T10:03:32;11.70;99.90
10572;DHT22;5334;48.928;12.704;2023-04-25T10:06:03;12.10;99.90
10572;DHT22;5334;48.928;12.704;2023-04-25T10:08:37;12.80;99.90
10572;DHT22;5334;48.928;12.704;2023-04-25T10:11:07;13.50;99.90
10572;DHT22;5334;48.928;12.704;2023-04-25T10:13:34;14.20;99.90
10572;DHT22;5334;48.928;12.704;2023-04-25T10:16:02;14.70;99.90
10572;DHT22;5334;48.928;12.704;2023-04-25T10:18:29;15.30;99.90
10572;DHT22;5334;48.928;12.704;2023-04-25T10:20:56;15.60;99.90
10572;DHT22;5334;48.928;12.704;2023-04-25T10:23:23;15.40;99.90
10572;DHT22;5334;48.928;12.704;2023-04-25T10:25:50;15.00;99.90
10572;DHT22;5334;48.928;12.704;2023-04-25T10:28:17;14.50;99.90
10572;DHT22;5334;48.928;12.704;2023-04-25T10:30:58;14.20;99.90
10572;DHT22;5334;48.928;12.704;2023-04-25T10:36:13;12.80;99.90
10572;DHT22;5334;48.928;12.704;2023-04-25T10:38:39;12.30;99.90
10572;DHT22;5334;48.928;12.704;2023-04-25T10:41:07;12.20;99.90
10572;DHT22;5334;48.928;12.704;2023-04-25T10:43:39;12.00;99.90
10572;DHT22;5334;48.928;12.704;2023-04-25T10:48:54;11.80;99.90
10572;DHT22;5334;48.928;12.704;2023-04-25T10:51:28;11.80;99.90
10572;DHT22;5334;48.928;12.704;2023-04-25T10:54:07;11.80;99.90
10572;DHT22;5334;48.928;12.704;2023-04-25T10:56:37;12.00;99.90
10572;DHT22;5334;48.928;12.704;2023-04-25T11:01:41;12.40;99.90
10572;DHT22;5334;48.928;12.704;2023-04-25T11:09:29;13.60;99.90
10572;DHT22;5334;48.928;12.704;2023-04-25T11:11:59;14.30;99.90
10572;DHT22;5334;48.928;12.704;2023-04-25T11:14:25;15.00;99.90
10572;DHT22;5334;48.928;12.704;2023-04-25T11:16:55;15.70;99.90
10572;DHT22;5334;48.928;12.704;2023-04-25T11:19:22;15.80;99.90
10572;DHT22;5334;48.928;12.704;2023-04-25T11:21:47;15.20;99.90
10572;DHT22;5334;48.928;12.704;2023-04-25T11:24:13;14.50;99.90
10572;DHT22;5334;48.928;12.704;2023-04-25T11:26:42;13.80;99.90
10572;DHT22;5334;48.928;12.704;2023-04-25T11:29:08;13.40;99.90
10572;DHT22;5334;48.928;12.704;2023-04-25T11:31:34;13.10;99.90
10572;DHT22;5334;48.928;12.704;2023-04-25T11:33:59;12.80;99.90
10572;DHT22;5334;48.928;12.704;2023-04-25T11:36:26;12.60;99.90
10572;DHT22;5334;48.928;12.704;2023-04-25T11:38:53;12.60;99.90
10572;DHT22;5334;48.928;12.704;2023-04-25T11:41:19;13.20;99.90
10572;DHT22;5334;48.928;12.704;2023-04-25T11:43:45;14.10;99.90
10572;DHT22;5334;48.928;12.704;2023-04-25T11:46:11;14.90;99.90
10572;DHT22;5334;48.928;12.704;2023-04-25T11:48:38;15.10;99.90
10572;DHT22;5334;48.928;12.704;2023-04-25T11:51:04;14.90;99.90
10572;DHT22;5334;48.928;12.704;2023-04-25T11:53:30;14.60;99.90
10572;DHT22;5334;48.928;12.704;2023-04-25T11:55:56;14.20;99.90
10572;DHT22;5334;48.928;12.704;2023-04-25T11:58:22;13.90;99.90
10572;DHT22;5334;48.928;12.704;2023-04-25T12:00:47;13.70;99.90
10572;DHT22;5334;48.928;12.704;2023-04-25T12:03:13;14.20;99.90
10572;DHT22;5334;48.928;12.704;2023-04-25T12:05:38;14.80;99.90
10572;DHT22;5334;48.928;12.704;2023-04-25T12:08:12;15.60;99.90
10572;DHT22;5334;48.928;12.704;2023-04-25T12:10:42;16.30;99.90
10572;DHT22;5334;48.928;12.704;2023-04-25T12:13:23;16.10;99.90
10572;DHT22;5334;48.928;12.704;2023-04-25T12:15:49;15.70;99.90
10572;DHT22;5334;48.928;12.704;2023-04-25T12:18:19;15.40;99.90
10572;DHT22;5334;48.928;12.704;2023-04-25T12:20:46;15.00;99.90
10572;DHT22;5334;48.928;12.704;2023-04-25T12:23:12;14.70;99.90
10572;DHT22;5334;48.928;12.704;2023-04-25T12:25:38;14.40;99.90
10572;DHT22;5334;48.928;12.704;2023-04-25T12:28:18;14.30;99.90
10572;DHT22;5334;48.928;12.704;2023-04-25T12:31:02;14.30;99.90
10572;DHT22;5334;48.928;12.704;2023-04-25T12:33:38;14.60;99.90
10572;DHT22;5334;48.928;12.704;2023-04-25T12:36:05;14.70;99.90
10572;DHT22;5334;48.928;12.704;2023-04-25T12:38:38;14.70;99.90
10572;DHT22;5334;48.928;12.704;2023-04-25T12:41:04;14.80;99.90
10572;DHT22;5334;48.928;12.704;2023-04-25T12:43:30;14.80;99.90
10572;DHT22;5334;48.928;12.704;2023-04-25T12:45:56;14.90;99.90
10572;DHT22;5334;48.928;12.704;2023-04-25T12:48:22;14.90;99.90
10572;DHT22;5334;48.928;12.704;2023-04-25T12:50:49;14.80;99.90
10572;DHT22;5334;48.928;12.704;2023-04-25T12:53:19;14.70;99.90
10572;DHT22;5334;48.928;12.704;2023-04-25T12:55:46;14.90;99.90
10572;DHT22;5334;48.928;12.704;2023-04-25T12:58:15;15.30;99.90
10572;DHT22;5334;48.928;12.704;2023-04-25T13:00:42;15.40;99.90
10572;DHT22;5334;48.928;12.704;2023-04-25T13:03:08;15.60;99.90
10572;DHT22;5334;48.928;12.704;2023-04-25T13:05:35;15.40;99.90
10572;DHT22;5334;48.928;12.704;2023-04-25T13:08:00;15.10;99.90
10572;DHT22;5334;48.928;12.704;2023-04-25T13:10:26;14.90;99.90
10572;DHT22;5334;48.928;12.704;2023-04-25T13:12:52;14.70;99.90
10572;DHT22;5334;48.928;12.704;2023-04-25T13:15:18;14.50;99.90
10572;DHT22;5334;48.928;12.704;2023-04-25T13:17:44;14.20;99.90
10572;DHT22;5334;48.928;12.704;2023-04-25T13:20:10;14.10;99.90
10572;DHT22;5334;48.928;12.704;2023-04-25T13:22:39;14.00;99.90
10572;DHT22;5334;48.928;12.704;2023-04-25T13:25:07;13.90;99.90
10572;DHT22;5334;48.928;12.704;2023-04-25T13:27:34;13.60;99.90
10572;DHT22;5334;48.928;12.704;2023-04-25T13:30:01;13.50;99.90
10572;DHT22;5334;48.928;12.704;2023-04-25T13:32:33;14.40;99.90
10572;DHT22;5334;48.928;12.704;2023-04-25T13:34:59;14.50;99.90
10572;DHT22;5334;48.928;12.704;2023-04-25T13:37:24;14.70;99.90
10572;DHT22;5334;48.928;12.704;2023-04-25T13:39:50;15.00;99.90
10572;DHT22;5334;48.928;12.704;2023-04-25T13:42:16;14.90;99.90
10572;DHT22;5334;48.928;12.704;2023-04-25T13:44:42;14.40;99.30
10572;DHT22;5334;48.928;12.704;2023-04-25T13:47:07;14.10;99.90
10572;DHT22;5334;48.928;12.704;2023-04-25T13:49:33;13.80;99.90
10572;DHT22;5334;48.928;12.704;2023-04-25T13:51:59;13.70;99.90
10572;DHT22;5334;48.928;12.704;2023-04-25T13:54:24;13.60;99.90
10572;DHT22;5334;48.928;12.704;2023-04-25T13:56:50;13.70;99.90
10572;DHT22;5334;48.928;12.704;2023-04-25T13:59:16;13.70;99.90
10572;DHT22;5334;48.928;12.704;2023-04-25T14:01:42;13.80;99.70
10572;DHT22;5334;48.928;12.704;2023-04-25T14:04:08;14.00;99.90
10572;DHT22;5334;48.928;12.704;2023-04-25T14:06:34;14.20;99.40
10572;DHT22;5334;48.928;12.704;2023-04-25T14:09:00;14.30;98.50
10572;DHT22;5334;48.928;12.704;2023-04-25T14:11:26;14.30;99.30
10572;DHT22;5334;48.928;12.704;2023-04-25T14:13:52;14.70;99.80
10572;DHT22;5334;48.928;12.704;2023-04-25T14:16:17;14.90;99.90
10572;DHT22;5334;48.928;12.704;2023-04-25T14:18:43;15.50;97.90
10572;DHT22;5334;48.928;12.704;2023-04-25T14:21:09;15.60;97.60
10572;DHT22;5334;48.928;12.704;2023-04-25T14:23:35;15.50;98.40
10572;DHT22;5334;48.928;12.704;2023-04-25T14:26:01;15.30;98.80
10572;DHT22;5334;48.928;12.704;2023-04-25T14:28:27;14.90;99.10
10572;DHT22;5334;48.928;12.704;2023-04-25T14:30:52;14.60;99.50
10572;DHT22;5334;48.928;12.704;2023-04-25T14:33:18;14.40;99.80
10572;DHT22;5334;48.928;12.704;2023-04-25T14:35:44;14.20;99.90
10572;DHT22;5334;48.928;12.704;2023-04-25T14:38:09;13.90;99.90
10572;DHT22;5334;48.928;12.704;2023-04-25T14:40:35;13.60;99.90
10572;DHT22;5334;48.928;12.704;2023-04-25T14:43:01;13.20;99.90
10572;DHT22;5334;48.928;12.704;2023-04-25T14:45:26;12.80;99.90
10572;DHT22;5334;48.928;12.704;2023-04-25T14:47:52;12.60;99.90
10572;DHT22;5334;48.928;12.704;2023-04-25T14:50:18;12.30;99.90
10572;DHT22;5334;48.928;12.704;2023-04-25T14:52:43;12.30;99.90
10572;DHT22;5334;48.928;12.704;2023-04-25T14:55:10;12.30;99.90
10572;DHT22;5334;48.928;12.704;2023-04-25T14:57:36;12.50;99.90
10572;DHT22;5334;48.928;12.704;2023-04-25T15:00:03;13.10;99.90
10572;DHT22;5334;48.928;12.704;2023-04-25T15:02:32;13.50;99.90
10572;DHT22;5334;48.928;12.704;2023-04-25T15:04:58;13.60;99.90
10572;DHT22;5334;48.928;12.704;2023-04-25T15:07:23;13.60;99.90
10572;DHT22;5334;48.928;12.704;2023-04-25T15:09:50;13.40;99.90
10572;DHT22;5334;48.928;12.704;2023-04-25T15:12:15;13.30;99.90
10572;DHT22;5334;48.928;12.704;2023-04-25T15:14:41;13.10;99.90
10572;DHT22;5334;48.928;12.704;2023-04-25T15:17:06;13.00;99.90
10572;DHT22;5334;48.928;12.704;2023-04-25T15:19:32;13.00;99.90
10572;DHT22;5334;48.928;12.704;2023-04-25T15:21:58;13.00;99.90
10572;DHT22;5334;48.928;12.704;2023-04-25T15:24:26;13.00;99.90
10572;DHT22;5334;48.928;12.704;2023-04-25T15:26:52;13.00;99.90
10572;DHT22;5334;48.928;12.704;2023-04-25T15:29:18;13.10;99.90
10572;DHT22;5334;48.928;12.704;2023-04-25T15:31:44;13.20;99.90
10572;DHT22;5334;48.928;12.704;2023-04-25T15:34:10;13.80;99.90
10572;DHT22;5334;48.928;12.704;2023-04-25T15:36:36;14.60;99.90
10572;DHT22;5334;48.928;12.704;2023-04-25T15:39:01;15.10;99.50
10572;DHT22;5334;48.928;12.704;2023-04-25T15:41:28;15.20;98.90
10572;DHT22;5334;48.928;12.704;2023-04-25T15:43:53;15.00;99.10
10572;DHT22;5334;48.928;12.704;2023-04-25T15:46:19;14.50;99.40
10572;DHT22;5334;48.928;12.704;2023-04-25T15:48:46;14.10;99.10
10572;DHT22;5334;48.928;12.704;2023-04-25T15:51:12;13.60;99.90